createdAt,value
2017-09-11T00:02:02.761Z,79.90
2017-09-11T00:07:30.962Z,79.90
2017-09-11T00:12:59.171Z,80.00
2017-09-11T00:18:27.358Z,80.00
2017-09-11T00:23:56.284Z,79.90
2017-09-11T00:29:24.445Z,79.90
2017-09-11T00:34:52.587Z,80.10
2017-09-11T00:40:20.825Z,80.00
2017-09-11T00:45:48.969Z,80.00
2017-09-11T00:51:17.129Z,80.00
2017-09-11T00:56:46.055Z,80.80
2017-09-11T01:02:14.259Z,80.20
2017-09-11T01:07:42.437Z,80.10
2017-09-11T01:13:11.554Z,80.10
2017-09-11T01:18:39.708Z,80.10
2017-09-11T01:24:09.901Z,81.20
2017-09-11T01:29:38.242Z,81.40
2017-09-11T01:35:06.476Z,81.40
2017-09-11T01:40:34.620Z,81.40
2017-09-11T01:46:02.773Z,81.40
2017-09-11T01:51:30.952Z,81.40
2017-09-11T01:56:59.148Z,81.40
2017-09-11T02:02:27.310Z,81.40
2017-09-11T02:07:55.501Z,81.40
2017-09-11T02:13:23.672Z,81.60
2017-09-11T02:18:51.822Z,81.70
2017-09-11T02:24:19.961Z,81.60
2017-09-11T02:29:48.173Z,81.70
2017-09-11T02:35:17.074Z,81.90
2017-09-11T02:40:45.212Z,81.90
2017-09-11T02:46:13.352Z,82.00
2017-09-11T02:51:41.500Z,81.90
2017-09-11T02:57:10.417Z,82.40
2017-09-11T03:02:38.546Z,82.00
2017-09-11T03:08:07.438Z,82.20
2017-09-11T03:13:35.582Z,82.10
2017-09-11T03:19:04.492Z,82.20
2017-09-11T03:24:32.661Z,82.10
2017-09-11T03:30:00.786Z,82.20
2017-09-11T03:35:29.714Z,82.40
2017-09-11T03:40:58.605Z,82.30
2017-09-11T03:46:26.887Z,82.40
2017-09-11T03:51:55.106Z,82.50
2017-09-11T03:57:23.244Z,82.50
2017-09-11T04:02:51.389Z,82.30
2017-09-11T04:08:19.543Z,82.40
2017-09-11T04:13:47.695Z,82.40
2017-09-11T04:19:15.848Z,82.40
2017-09-11T04:24:44.757Z,82.50
2017-09-11T04:30:12.915Z,82.50
2017-09-11T04:35:41.059Z,82.60
2017-09-11T04:41:10.178Z,82.60
2017-09-11T04:46:39.098Z,82.60
2017-09-11T04:52:08.036Z,82.50
2017-09-11T04:57:36.167Z,82.50
2017-09-11T05:03:04.306Z,82.50
2017-09-11T05:08:32.478Z,82.50
2017-09-11T05:14:00.625Z,82.30
2017-09-11T05:19:29.635Z,82.20
2017-09-11T05:24:57.788Z,82.20
2017-09-11T05:30:25.927Z,81.60
2017-09-11T05:35:54.839Z,81.00
2017-09-11T05:41:22.980Z,81.00
2017-09-11T05:46:51.132Z,81.00
2017-09-11T05:52:19.291Z,80.80
2017-09-11T05:57:47.431Z,81.00
2017-09-11T06:03:15.581Z,80.70
2017-09-11T06:08:44.515Z,80.80
2017-09-11T06:14:12.709Z,80.70
2017-09-11T06:19:41.632Z,80.20
2017-09-11T06:25:09.780Z,80.20
2017-09-11T06:30:37.936Z,80.00
2017-09-11T06:36:06.092Z,79.90
2017-09-11T06:41:34.242Z,79.70
2017-09-11T06:47:02.419Z,79.70
2017-09-11T06:52:30.598Z,79.40
2017-09-11T06:57:58.761Z,79.30
2017-09-11T07:03:26.925Z,79.00
2017-09-11T07:08:55.058Z,79.20
2017-09-11T07:14:23.216Z,78.70
2017-09-11T07:19:51.352Z,78.60
2017-09-11T07:25:19.493Z,78.30
2017-09-11T07:30:48.409Z,78.80
2017-09-11T07:36:16.559Z,78.40
2017-09-11T07:41:44.716Z,78.00
2017-09-11T07:47:12.847Z,77.50
2017-09-11T07:52:40.997Z,77.10
2017-09-11T07:58:09.903Z,76.90
2017-09-11T08:03:38.044Z,76.90
2017-09-11T08:09:06.209Z,76.20
2017-09-11T08:14:35.160Z,76.10
2017-09-11T08:20:03.321Z,76.10
2017-09-11T08:25:31.500Z,76.20
2017-09-11T08:30:59.653Z,76.50
2017-09-11T08:36:27.840Z,75.40
2017-09-11T08:41:55.972Z,75.00
2017-09-11T08:47:24.166Z,75.40
2017-09-11T08:52:52.320Z,74.80
2017-09-11T08:58:20.468Z,75.10
2017-09-11T09:03:49.420Z,74.30
2017-09-11T09:09:17.665Z,74.00
2017-09-11T09:14:46.067Z,73.70
2017-09-11T09:20:14.208Z,72.80
2017-09-11T09:25:42.397Z,72.20
2017-09-11T09:31:10.589Z,71.70
2017-09-11T09:36:38.735Z,71.80
2017-09-11T09:42:06.895Z,71.10
2017-09-11T09:47:35.039Z,71.30
2017-09-11T09:53:05.149Z,71.40
2017-09-11T09:58:34.322Z,71.10
2017-09-11T10:04:02.623Z,71.30
2017-09-11T10:09:30.879Z,70.40
2017-09-11T10:14:59.823Z,68.90
2017-09-11T10:20:28.013Z,68.90
2017-09-11T10:25:56.214Z,68.40
2017-09-11T10:31:25.214Z,66.50
2017-09-11T10:36:53.411Z,66.40
2017-09-11T10:42:22.336Z,64.50
2017-09-11T10:47:50.488Z,64.40
2017-09-11T10:53:18.659Z,64.60
2017-09-11T10:58:46.809Z,63.80
2017-09-11T11:04:15.025Z,63.20
2017-09-11T11:09:44.079Z,61.30
2017-09-11T11:15:12.264Z,61.10
2017-09-11T11:20:40.503Z,60.40
2017-09-11T11:26:08.675Z,58.90
2017-09-11T11:31:36.938Z,57.30
2017-09-11T11:37:05.961Z,55.60
2017-09-11T11:42:35.087Z,55.50
2017-09-11T11:48:04.035Z,54.90
2017-09-11T11:53:32.202Z,54.80
2017-09-11T11:59:00.351Z,54.50
2017-09-11T12:04:28.520Z,54.50
2017-09-11T12:09:56.711Z,54.00
2017-09-11T12:15:25.630Z,55.10
2017-09-11T12:20:53.824Z,55.00
2017-09-11T12:26:22.137Z,54.30
2017-09-11T12:31:52.490Z,55.10
2017-09-11T12:37:21.426Z,55.30
2017-09-11T12:42:49.571Z,55.30
2017-09-11T12:48:17.737Z,56.00
2017-09-11T12:53:45.881Z,56.70
2017-09-11T12:59:14.045Z,56.00
2017-09-11T13:04:42.201Z,56.20
2017-09-11T13:10:10.377Z,55.90
2017-09-11T13:15:38.524Z,55.30
2017-09-11T13:21:07.090Z,55.10
2017-09-11T13:26:35.285Z,55.60
2017-09-11T13:32:04.036Z,56.30
2017-09-11T13:37:33.150Z,56.50
2017-09-11T13:43:01.436Z,56.50
2017-09-11T13:48:29.623Z,56.50
2017-09-11T13:53:57.762Z,56.90
2017-09-11T13:59:26.913Z,57.10
2017-09-11T14:04:55.131Z,56.80
2017-09-11T14:10:23.309Z,56.20
2017-09-11T14:15:51.485Z,56.10
2017-09-11T14:21:19.650Z,56.60
2017-09-11T14:26:47.802Z,56.20
2017-09-11T14:32:15.943Z,55.30
2017-09-11T14:37:44.105Z,52.80
2017-09-11T14:43:12.251Z,53.00
2017-09-11T14:48:40.384Z,54.80
2017-09-11T14:54:08.541Z,55.20
2017-09-11T14:59:36.680Z,55.40
2017-09-11T15:05:04.932Z,56.00
2017-09-11T15:10:33.123Z,56.40
2017-09-11T15:16:01.370Z,56.60
2017-09-11T15:21:29.659Z,56.80
2017-09-11T15:26:57.863Z,56.80
2017-09-11T15:32:26.048Z,57.10
2017-09-11T15:37:54.232Z,57.70
2017-09-11T15:43:22.401Z,58.50
2017-09-11T15:48:50.630Z,58.70
2017-09-11T15:54:18.806Z,59.70
2017-09-11T15:59:47.414Z,59.30
2017-09-11T16:05:16.340Z,59.90
2017-09-11T16:10:44.488Z,59.90
2017-09-11T16:16:12.672Z,60.30
2017-09-11T16:21:40.839Z,60.00
2017-09-11T16:27:09.005Z,60.50
2017-09-11T16:32:37.175Z,60.90
2017-09-11T16:38:05.329Z,60.90
2017-09-11T16:43:33.489Z,61.10
2017-09-11T16:49:01.689Z,61.30
2017-09-11T16:54:29.855Z,61.20
2017-09-11T16:59:58.029Z,60.50
2017-09-11T17:05:27.154Z,60.30
2017-09-11T17:10:59.338Z,59.20
2017-09-11T17:16:27.612Z,58.60
2017-09-11T17:21:55.796Z,58.60
2017-09-11T17:27:23.979Z,58.60
2017-09-11T17:32:52.179Z,58.30
2017-09-11T17:38:21.434Z,58.60
2017-09-11T17:43:49.643Z,58.70
2017-09-11T17:49:17.795Z,58.80
2017-09-11T17:54:46.005Z,59.10
2017-09-11T18:00:14.184Z,59.20
2017-09-11T18:05:43.386Z,59.60
2017-09-11T18:11:11.870Z,60.20
2017-09-11T18:16:48.440Z,59.80
2017-09-11T18:22:16.585Z,60.10
2017-09-11T18:27:44.737Z,60.40
2017-09-11T18:33:13.855Z,60.60
2017-09-11T18:38:42.020Z,61.00
2017-09-11T18:44:10.937Z,61.60
2017-09-11T18:49:41.129Z,61.50
2017-09-11T18:55:09.299Z,61.80
2017-09-11T19:00:37.488Z,62.00
2017-09-11T19:06:06.142Z,62.30
2017-09-11T19:11:36.415Z,62.60
2017-09-11T19:17:05.327Z,62.90
2017-09-11T19:22:33.859Z,62.90
2017-09-11T19:28:09.719Z,63.10
2017-09-11T19:33:37.917Z,63.30
2017-09-11T19:39:09.085Z,63.40
2017-09-11T19:44:37.299Z,63.50
2017-09-11T19:50:59.209Z,64.00
2017-09-11T19:56:27.415Z,63.70
2017-09-11T20:02:00.263Z,63.90
2017-09-11T20:07:32.704Z,64.00
2017-09-11T20:13:01.171Z,63.90
2017-09-11T20:18:29.353Z,64.00
2017-09-11T20:23:57.548Z,63.90
2017-09-11T20:29:29.167Z,64.10
2017-09-11T20:34:58.053Z,64.20
2017-09-11T20:40:27.195Z,64.40
2017-09-11T20:46:01.940Z,64.80
2017-09-11T20:51:30.098Z,64.70
2017-09-11T20:56:58.264Z,64.90
2017-09-11T21:02:26.429Z,65.10
2017-09-11T21:07:54.604Z,65.70
2017-09-11T21:13:22.757Z,65.10
2017-09-11T21:18:50.938Z,65.40
2017-09-11T21:24:19.120Z,65.30
2017-09-11T21:29:48.035Z,65.30
2017-09-11T21:35:16.192Z,65.20
2017-09-11T21:40:44.346Z,65.10
2017-09-11T21:46:12.565Z,65.00
2017-09-11T21:51:42.432Z,64.90
2017-09-11T21:57:12.260Z,65.00
2017-09-11T22:02:40.672Z,64.60
2017-09-11T22:08:10.190Z,64.30
2017-09-11T22:13:38.343Z,64.00
2017-09-11T22:19:06.580Z,63.70
2017-09-11T22:24:34.769Z,63.40
2017-09-11T22:30:02.925Z,63.30
2017-09-11T22:35:31.110Z,63.10
2017-09-11T22:40:59.288Z,62.70
2017-09-11T22:46:29.548Z,62.80
2017-09-11T22:51:57.747Z,62.60
2017-09-11T22:57:26.720Z,62.40
2017-09-11T23:02:54.904Z,62.10
2017-09-11T23:08:23.063Z,62.10
2017-09-11T23:13:51.206Z,62.10
2017-09-11T23:19:19.491Z,62.10
2017-09-11T23:24:47.659Z,62.10
2017-09-11T23:30:15.830Z,62.20
2017-09-11T23:35:44.042Z,62.20
2017-09-11T23:41:12.225Z,62.30
2017-09-11T23:46:41.122Z,63.40
2017-09-11T23:52:09.353Z,62.60
2017-09-11T23:57:37.491Z,62.60
